createdAt,value
2018-11-20T00:03:01.942Z,4.40
2018-11-20T00:05:54.280Z,4.40
2018-11-20T00:12:31.533Z,4.40
2018-11-20T00:15:23.348Z,4.40
2018-11-20T00:18:19.018Z,4.40
2018-11-20T00:21:09.185Z,4.30
2018-11-20T00:24:22.108Z,4.40
2018-11-20T00:32:14.885Z,4.30
2018-11-20T00:45:44.892Z,4.30
2018-11-20T00:52:44.349Z,4.20
2018-11-20T00:55:47.330Z,4.00
2018-11-20T01:05:08.829Z,4.00
2018-11-20T01:10:54.528Z,3.80
2018-11-20T01:26:27.030Z,3.80
2018-11-20T01:34:26.387Z,3.60
2018-11-20T01:37:25.980Z,3.50
2018-11-20T01:40:13.134Z,3.50
2018-11-20T01:42:56.082Z,3.50
2018-11-20T01:50:30.711Z,3.50
2018-11-20T01:53:52.525Z,3.50
2018-11-20T01:56:40.125Z,3.60
2018-11-20T01:59:23.913Z,3.60
2018-11-20T02:02:21.448Z,3.50
2018-11-20T02:05:18.090Z,3.50
2018-11-20T02:12:18.299Z,3.50
2018-11-20T02:15:58.195Z,3.40
2018-11-20T02:23:01.348Z,3.60
2018-11-20T02:25:58.166Z,3.60
2018-11-20T02:30:51.628Z,3.60
2018-11-20T02:37:53.271Z,3.60
2018-11-20T02:40:46.586Z,3.70
2018-11-20T02:46:25.194Z,3.80
2018-11-20T02:49:17.030Z,3.60
2018-11-20T02:53:06.636Z,3.70
2018-11-20T02:59:17.343Z,3.80
2018-11-20T03:02:36.739Z,3.80
2018-11-20T03:05:25.555Z,3.80
2018-11-20T03:08:15.757Z,3.80
2018-11-20T03:11:13.813Z,3.70
2018-11-20T03:16:09.782Z,3.80
2018-11-20T03:18:59.229Z,3.80
2018-11-20T03:21:43.084Z,3.70
2018-11-20T03:25:38.433Z,3.70
2018-11-20T03:35:27.531Z,3.70
2018-11-20T03:38:19.183Z,3.60
2018-11-20T03:41:15.422Z,3.80
2018-11-20T03:44:03.713Z,3.70
2018-11-20T03:48:50.111Z,3.70
2018-11-20T03:55:52.621Z,3.80
2018-11-20T03:59:01.339Z,3.80
2018-11-20T04:02:07.873Z,3.80
2018-11-20T04:04:52.967Z,3.80
2018-11-20T04:07:45.153Z,3.90
2018-11-20T04:10:35.737Z,4.10
2018-11-20T04:14:04.412Z,4.00
2018-11-20T04:16:46.695Z,4.10
2018-11-20T04:20:21.734Z,4.00
2018-11-20T04:25:09.084Z,3.90
2018-11-20T04:29:56.892Z,3.80
2018-11-20T04:33:08.905Z,3.90
2018-11-20T04:36:09.072Z,3.90
2018-11-20T04:38:54.357Z,4.00
2018-11-20T04:43:22.926Z,3.90
2018-11-20T04:46:13.938Z,4.00
2018-11-20T04:49:02.365Z,4.00
2018-11-20T04:53:11.227Z,3.90
2018-11-20T04:55:58.984Z,4.00
2018-11-20T04:58:52.008Z,4.00
2018-11-20T05:01:41.228Z,4.00
2018-11-20T05:04:55.315Z,4.00
2018-11-20T05:09:40.892Z,4.00
2018-11-20T05:16:43.165Z,4.00
2018-11-20T05:19:44.599Z,3.80
2018-11-20T05:26:58.723Z,3.70
2018-11-20T05:29:54.539Z,3.80
2018-11-20T05:34:42.664Z,3.80
2018-11-20T05:39:25.910Z,3.80
2018-11-20T05:42:09.548Z,3.80
2018-11-20T05:45:00.343Z,3.90
2018-11-20T05:51:29.562Z,3.90
2018-11-20T05:54:13.700Z,3.90
2018-11-20T05:57:10.969Z,3.90
2018-11-20T06:02:03.948Z,3.90
2018-11-20T06:05:59.046Z,3.80
2018-11-20T06:09:12.258Z,3.80
2018-11-20T06:12:15.128Z,3.80
2018-11-20T06:16:21.284Z,3.80
2018-11-20T06:19:14.222Z,3.80
2018-11-20T06:27:40.503Z,3.90
2018-11-20T06:30:24.898Z,3.90
2018-11-20T06:33:13.189Z,4.00
2018-11-20T06:53:57.258Z,3.90
2018-11-20T07:09:13.207Z,3.90
2018-11-20T07:12:02.472Z,3.80
2018-11-20T07:26:09.197Z,4.40
2018-11-20T07:30:20.601Z,3.90
2018-11-20T07:33:08.751Z,3.90
2018-11-20T07:35:58.449Z,3.90
2018-11-20T07:39:06.780Z,3.90
2018-11-20T07:44:09.841Z,3.90
2018-11-20T07:47:42.982Z,3.90
2018-11-20T08:05:29.034Z,4.00
2018-11-20T08:08:24.395Z,3.90
2018-11-20T08:14:24.668Z,3.90
2018-11-20T08:20:31.885Z,4.00
2018-11-20T08:28:23.248Z,4.00
2018-11-20T08:37:42.578Z,4.10
2018-11-20T08:44:03.989Z,4.00
2018-11-20T09:28:27.108Z,4.30
2018-11-20T09:38:01.956Z,4.10
2018-11-20T09:40:59.382Z,4.20
2018-11-20T10:04:43.251Z,4.30
2018-11-20T10:14:32.841Z,4.40
